Terminal Aerodrome Forecast
Issued by NWS

Home | Current Version | Previous Version | Text Only | Print | Product List | Glossary On
Versions: 1 2 3 4 5 6 7 8 9 10 11 12 13 14 15 16
000
FTUS41 KBGM 291131
TAFITH
TAF
KITH 291131Z 2912/3012 11010KT P6SM -RA OVC035
      TEMPO 2912/2916 BKN018
     FM291600 11009KT 6SM -RA OVC040
      TEMPO 2916/2919 4SM -SHRA OVC025
     FM291900 11009KT P6SM BKN040 OVC120=

USA.gov is the U.S. government's official web portal to all federal, state and local government web resources and services.